sensor_id;sensor_type;location;lat;lon;timestamp;P1;durP1;ratioP1;P2;durP2;ratioP2
67026;SDS011;53933;52.142;11.738;2022-11-11T00:00:12;1.40;;;1.05;;
67026;SDS011;53933;52.142;11.738;2022-11-11T00:02:40;1.00;;;0.80;;
67026;SDS011;53933;52.142;11.738;2022-11-11T00:05:07;1.80;;;1.00;;
67026;SDS011;53933;52.142;11.738;2022-11-11T00:07:34;1.83;;;1.25;;
67026;SDS011;53933;52.142;11.738;2022-11-11T00:10:00;0.90;;;0.90;;
67026;SDS011;53933;52.142;11.738;2022-11-11T00:12:27;1.38;;;1.00;;
67026;SDS011;53933;52.142;11.738;2022-11-11T00:14:55;2.80;;;1.20;;
67026;SDS011;53933;52.142;11.738;2022-11-11T00:17:22;1.05;;;0.90;;
67026;SDS011;53933;52.142;11.738;2022-11-11T00:20:07;2.70;;;0.95;;
67026;SDS011;53933;52.142;11.738;2022-11-11T00:25:37;0.98;;;0.95;;
67026;SDS011;53933;52.142;11.738;2022-11-11T00:28:03;2.90;;;1.10;;
67026;SDS011;53933;52.142;11.738;2022-11-11T00:30:32;2.05;;;0.88;;
67026;SDS011;53933;52.142;11.738;2022-11-11T00:32:58;0.93;;;0.88;;
67026;SDS011;53933;52.142;11.738;2022-11-11T00:35:25;2.75;;;0.95;;
67026;SDS011;53933;52.142;11.738;2022-11-11T00:38:10;1.05;;;0.90;;
67026;SDS011;53933;52.142;11.738;2022-11-11T00:40:58;1.00;;;0.90;;
67026;SDS011;53933;52.142;11.738;2022-11-11T00:43:25;4.47;;;1.35;;
67026;SDS011;53933;52.142;11.738;2022-11-11T00:45:53;0.70;;;0.70;;
67026;SDS011;53933;52.142;11.738;2022-11-11T00:48:40;1.20;;;0.77;;
67026;SDS011;53933;52.142;11.738;2022-11-11T00:51:25;1.63;;;0.98;;
67026;SDS011;53933;52.142;11.738;2022-11-11T00:53:52;1.08;;;0.73;;
67026;SDS011;53933;52.142;11.738;2022-11-11T00:56:19;1.00;;;0.90;;
67026;SDS011;53933;52.142;11.738;2022-11-11T00:58:46;2.72;;;1.10;;
67026;SDS011;53933;52.142;11.738;2022-11-11T01:01:15;3.25;;;1.33;;
67026;SDS011;53933;52.142;11.738;2022-11-11T01:03:42;2.05;;;1.02;;
67026;SDS011;53933;52.142;11.738;2022-11-11T01:06:09;3.30;;;0.88;;
67026;SDS011;53933;52.142;11.738;2022-11-11T01:08:37;1.95;;;0.95;;
67026;SDS011;53933;52.142;11.738;2022-11-11T01:11:09;1.40;;;1.10;;
67026;SDS011;53933;52.142;11.738;2022-11-11T01:13:37;0.95;;;0.95;;
67026;SDS011;53933;52.142;11.738;2022-11-11T01:16:05;1.60;;;0.93;;
67026;SDS011;53933;52.142;11.738;2022-11-11T01:18:35;1.27;;;0.95;;
67026;SDS011;53933;52.142;11.738;2022-11-11T01:21:02;1.15;;;0.80;;
67026;SDS011;53933;52.142;11.738;2022-11-11T01:23:31;3.22;;;0.88;;
67026;SDS011;53933;52.142;11.738;2022-11-11T01:26:00;0.80;;;0.80;;
67026;SDS011;53933;52.142;11.738;2022-11-11T01:28:28;0.98;;;0.90;;
67026;SDS011;53933;52.142;11.738;2022-11-11T01:30:58;1.23;;;0.90;;
67026;SDS011;53933;52.142;11.738;2022-11-11T01:33:26;2.30;;;0.90;;
67026;SDS011;53933;52.142;11.738;2022-11-11T01:35:54;0.88;;;0.75;;
67026;SDS011;53933;52.142;11.738;2022-11-11T01:38:20;1.15;;;0.90;;
67026;SDS011;53933;52.142;11.738;2022-11-11T01:40:47;1.42;;;0.80;;
67026;SDS011;53933;52.142;11.738;2022-11-11T01:43:16;0.70;;;0.70;;
67026;SDS011;53933;52.142;11.738;2022-11-11T01:45:49;2.10;;;0.82;;
67026;SDS011;53933;52.142;11.738;2022-11-11T01:48:27;1.30;;;0.98;;
67026;SDS011;53933;52.142;11.738;2022-11-11T01:51:18;1.15;;;0.90;;
67026;SDS011;53933;52.142;11.738;2022-11-11T01:53:53;0.80;;;0.80;;
67026;SDS011;53933;52.142;11.738;2022-11-11T01:56:25;1.15;;;0.75;;
67026;SDS011;53933;52.142;11.738;2022-11-11T01:58:52;0.70;;;0.70;;
67026;SDS011;53933;52.142;11.738;2022-11-11T02:01:22;1.45;;;0.80;;
67026;SDS011;53933;52.142;11.738;2022-11-11T02:03:49;2.13;;;0.90;;
67026;SDS011;53933;52.142;11.738;2022-11-11T02:06:36;1.13;;;0.95;;
67026;SDS011;53933;52.142;11.738;2022-11-11T02:09:04;1.75;;;0.80;;
67026;SDS011;53933;52.142;11.738;2022-11-11T02:11:32;1.40;;;0.88;;
67026;SDS011;53933;52.142;11.738;2022-11-11T02:14:18;0.68;;;0.65;;
67026;SDS011;53933;52.142;11.738;2022-11-11T02:17:00;3.10;;;0.95;;
67026;SDS011;53933;52.142;11.738;2022-11-11T02:19:31;2.78;;;0.95;;
67026;SDS011;53933;52.142;11.738;2022-11-11T02:22:05;3.67;;;1.08;;
67026;SDS011;53933;52.142;11.738;2022-11-11T02:24:37;2.20;;;0.82;;
67026;SDS011;53933;52.142;11.738;2022-11-11T02:27:05;1.10;;;1.00;;
67026;SDS011;53933;52.142;11.738;2022-11-11T02:29:35;1.70;;;0.90;;
67026;SDS011;53933;52.142;11.738;2022-11-11T02:32:02;1.48;;;1.13;;
67026;SDS011;53933;52.142;11.738;2022-11-11T02:34:29;2.63;;;0.90;;
67026;SDS011;53933;52.142;11.738;2022-11-11T02:36:57;3.38;;;1.25;;
67026;SDS011;53933;52.142;11.738;2022-11-11T02:39:26;2.05;;;0.80;;
67026;SDS011;53933;52.142;11.738;2022-11-11T02:41:54;1.65;;;0.80;;
67026;SDS011;53933;52.142;11.738;2022-11-11T02:44:24;1.05;;;0.85;;
67026;SDS011;53933;52.142;11.738;2022-11-11T02:46:51;2.45;;;1.13;;
67026;SDS011;53933;52.142;11.738;2022-11-11T02:49:18;1.30;;;0.93;;
67026;SDS011;53933;52.142;11.738;2022-11-11T02:51:45;1.38;;;0.98;;
67026;SDS011;53933;52.142;11.738;2022-11-11T02:54:12;1.20;;;0.85;;
67026;SDS011;53933;52.142;11.738;2022-11-11T02:56:39;2.00;;;1.10;;
67026;SDS011;53933;52.142;11.738;2022-11-11T02:59:24;2.83;;;1.00;;
67026;SDS011;53933;52.142;11.738;2022-11-11T03:01:51;1.00;;;0.80;;
67026;SDS011;53933;52.142;11.738;2022-11-11T03:04:17;2.03;;;1.05;;
67026;SDS011;53933;52.142;11.738;2022-11-11T03:06:44;1.95;;;1.00;;
67026;SDS011;53933;52.142;11.738;2022-11-11T03:09:11;1.33;;;1.00;;
67026;SDS011;53933;52.142;11.738;2022-11-11T03:11:38;0.70;;;0.70;;
67026;SDS011;53933;52.142;11.738;2022-11-11T03:14:05;3.08;;;1.30;;
67026;SDS011;53933;52.142;11.738;2022-11-11T03:16:34;1.88;;;1.00;;
67026;SDS011;53933;52.142;11.738;2022-11-11T03:19:18;0.70;;;0.70;;
67026;SDS011;53933;52.142;11.738;2022-11-11T03:21:45;1.05;;;0.82;;
67026;SDS011;53933;52.142;11.738;2022-11-11T03:24:11;2.85;;;1.17;;
67026;SDS011;53933;52.142;11.738;2022-11-11T03:26:38;2.45;;;1.00;;
67026;SDS011;53933;52.142;11.738;2022-11-11T03:29:03;1.60;;;0.90;;
67026;SDS011;53933;52.142;11.738;2022-11-11T03:31:30;2.33;;;0.90;;
67026;SDS011;53933;52.142;11.738;2022-11-11T03:33:58;1.67;;;0.93;;
67026;SDS011;53933;52.142;11.738;2022-11-11T03:36:42;4.10;;;0.95;;
67026;SDS011;53933;52.142;11.738;2022-11-11T03:39:26;1.40;;;0.98;;
67026;SDS011;53933;52.142;11.738;2022-11-11T03:41:53;1.15;;;1.02;;
67026;SDS011;53933;52.142;11.738;2022-11-11T03:44:20;1.45;;;0.80;;
67026;SDS011;53933;52.142;11.738;2022-11-11T03:46:47;1.20;;;0.90;;
67026;SDS011;53933;52.142;11.738;2022-11-11T03:49:15;2.30;;;0.88;;
67026;SDS011;53933;52.142;11.738;2022-11-11T03:51:42;1.10;;;0.80;;
67026;SDS011;53933;52.142;11.738;2022-11-11T03:54:08;2.78;;;1.30;;
67026;SDS011;53933;52.142;11.738;2022-11-11T03:56:35;1.05;;;0.88;;
67026;SDS011;53933;52.142;11.738;2022-11-11T03:59:02;2.17;;;1.05;;
67026;SDS011;53933;52.142;11.738;2022-11-11T04:01:28;2.63;;;0.95;;
67026;SDS011;53933;52.142;11.738;2022-11-11T04:04:12;5.78;;;1.02;;
67026;SDS011;53933;52.142;11.738;2022-11-11T04:06:58;1.02;;;0.60;;
67026;SDS011;53933;52.142;11.738;2022-11-11T04:09:42;1.50;;;0.95;;
67026;SDS011;53933;52.142;11.738;2022-11-11T04:12:26;2.20;;;1.02;;
67026;SDS011;53933;52.142;11.738;2022-11-11T04:14:55;1.48;;;0.90;;
67026;SDS011;53933;52.142;11.738;2022-11-11T04:17:39;1.83;;;1.02;;
67026;SDS011;53933;52.142;11.738;2022-11-11T04:20:08;2.22;;;1.10;;
67026;SDS011;53933;52.142;11.738;2022-11-11T04:23:01;1.90;;;1.10;;
67026;SDS011;53933;52.142;11.738;2022-11-11T04:25:28;2.10;;;1.10;;
67026;SDS011;53933;52.142;11.738;2022-11-11T04:28:12;0.85;;;0.82;;
67026;SDS011;53933;52.142;11.738;2022-11-11T04:30:57;1.30;;;1.10;;
67026;SDS011;53933;52.142;11.738;2022-11-11T04:33:23;2.15;;;1.00;;
67026;SDS011;53933;52.142;11.738;2022-11-11T04:35:51;1.00;;;0.60;;
67026;SDS011;53933;52.142;11.738;2022-11-11T04:38:18;2.25;;;1.10;;
67026;SDS011;53933;52.142;11.738;2022-11-11T04:41:02;1.83;;;1.10;;
67026;SDS011;53933;52.142;11.738;2022-11-11T04:43:29;1.58;;;0.90;;
67026;SDS011;53933;52.142;11.738;2022-11-11T04:45:57;1.20;;;1.08;;
67026;SDS011;53933;52.142;11.738;2022-11-11T04:48:22;2.53;;;1.15;;
67026;SDS011;53933;52.142;11.738;2022-11-11T04:50:49;0.80;;;0.80;;
67026;SDS011;53933;52.142;11.738;2022-11-11T04:53:17;1.00;;;0.77;;
67026;SDS011;53933;52.142;11.738;2022-11-11T04:55:44;1.98;;;1.00;;
67026;SDS011;53933;52.142;11.738;2022-11-11T04:58:29;1.17;;;0.90;;
67026;SDS011;53933;52.142;11.738;2022-11-11T05:00:58;1.75;;;1.05;;
67026;SDS011;53933;52.142;11.738;2022-11-11T05:03:25;1.50;;;1.00;;
67026;SDS011;53933;52.142;11.738;2022-11-11T05:05:52;3.22;;;1.00;;
67026;SDS011;53933;52.142;11.738;2022-11-11T05:08:39;0.90;;;0.80;;
67026;SDS011;53933;52.142;11.738;2022-11-11T05:11:24;2.28;;;0.88;;
67026;SDS011;53933;52.142;11.738;2022-11-11T05:13:52;1.27;;;1.00;;
67026;SDS011;53933;52.142;11.738;2022-11-11T05:16:38;1.13;;;0.88;;
67026;SDS011;53933;52.142;11.738;2022-11-11T05:19:25;1.55;;;0.95;;
67026;SDS011;53933;52.142;11.738;2022-11-11T05:22:10;1.20;;;0.70;;
67026;SDS011;53933;52.142;11.738;2022-11-11T05:24:40;1.77;;;1.00;;
67026;SDS011;53933;52.142;11.738;2022-11-11T05:27:25;2.05;;;1.00;;
67026;SDS011;53933;52.142;11.738;2022-11-11T05:29:52;0.80;;;0.80;;
67026;SDS011;53933;52.142;11.738;2022-11-11T05:32:19;1.15;;;0.90;;
67026;SDS011;53933;52.142;11.738;2022-11-11T05:34:46;1.60;;;1.40;;
67026;SDS011;53933;52.142;11.738;2022-11-11T05:37:14;3.08;;;1.10;;
67026;SDS011;53933;52.142;11.738;2022-11-11T05:39:43;2.20;;;0.93;;
67026;SDS011;53933;52.142;11.738;2022-11-11T05:42:10;1.88;;;1.00;;
67026;SDS011;53933;52.142;11.738;2022-11-11T05:44:37;1.13;;;0.95;;
67026;SDS011;53933;52.142;11.738;2022-11-11T05:47:04;5.30;;;1.30;;
67026;SDS011;53933;52.142;11.738;2022-11-11T05:49:30;1.55;;;1.00;;
67026;SDS011;53933;52.142;11.738;2022-11-11T05:51:57;2.42;;;0.95;;
67026;SDS011;53933;52.142;11.738;2022-11-11T05:54:24;1.08;;;0.80;;
67026;SDS011;53933;52.142;11.738;2022-11-11T05:56:52;1.95;;;1.00;;
67026;SDS011;53933;52.142;11.738;2022-11-11T05:59:19;2.83;;;1.05;;
67026;SDS011;53933;52.142;11.738;2022-11-11T06:01:46;2.67;;;1.10;;
67026;SDS011;53933;52.142;11.738;2022-11-11T06:04:13;1.63;;;0.80;;
67026;SDS011;53933;52.142;11.738;2022-11-11T06:06:39;1.95;;;1.10;;
67026;SDS011;53933;52.142;11.738;2022-11-11T06:09:06;0.75;;;0.75;;
67026;SDS011;53933;52.142;11.738;2022-11-11T06:11:33;1.23;;;1.00;;
67026;SDS011;53933;52.142;11.738;2022-11-11T06:14:01;1.27;;;1.17;;
67026;SDS011;53933;52.142;11.738;2022-11-11T06:16:28;2.05;;;1.15;;
67026;SDS011;53933;52.142;11.738;2022-11-11T06:18:55;1.75;;;0.90;;
67026;SDS011;53933;52.142;11.738;2022-11-11T06:21:23;0.93;;;0.88;;
67026;SDS011;53933;52.142;11.738;2022-11-11T06:23:49;2.67;;;0.80;;
67026;SDS011;53933;52.142;11.738;2022-11-11T06:26:16;2.25;;;1.10;;
67026;SDS011;53933;52.142;11.738;2022-11-11T06:28:44;1.52;;;0.93;;
67026;SDS011;53933;52.142;11.738;2022-11-11T06:31:13;3.00;;;1.10;;
67026;SDS011;53933;52.142;11.738;2022-11-11T06:33:41;1.33;;;1.10;;
67026;SDS011;53933;52.142;11.738;2022-11-11T06:36:08;1.80;;;0.85;;
67026;SDS011;53933;52.142;11.738;2022-11-11T06:38:37;1.30;;;0.90;;
67026;SDS011;53933;52.142;11.738;2022-11-11T06:41:04;1.38;;;0.80;;
67026;SDS011;53933;52.142;11.738;2022-11-11T06:43:31;1.23;;;0.80;;
67026;SDS011;53933;52.142;11.738;2022-11-11T06:45:57;0.82;;;0.70;;
67026;SDS011;53933;52.142;11.738;2022-11-11T06:48:26;2.05;;;1.05;;
67026;SDS011;53933;52.142;11.738;2022-11-11T06:50:54;0.95;;;0.75;;
67026;SDS011;53933;52.142;11.738;2022-11-11T06:53:26;0.98;;;0.75;;
67026;SDS011;53933;52.142;11.738;2022-11-11T06:55:54;1.13;;;0.70;;
67026;SDS011;53933;52.142;11.738;2022-11-11T06:58:21;1.15;;;0.93;;
67026;SDS011;53933;52.142;11.738;2022-11-11T07:00:47;3.22;;;1.05;;
67026;SDS011;53933;52.142;11.738;2022-11-11T07:03:15;2.13;;;0.60;;
67026;SDS011;53933;52.142;11.738;2022-11-11T07:05:44;1.00;;;0.70;;
67026;SDS011;53933;52.142;11.738;2022-11-11T07:08:11;1.50;;;1.00;;
67026;SDS011;53933;52.142;11.738;2022-11-11T07:10:41;1.55;;;0.77;;
67026;SDS011;53933;52.142;11.738;2022-11-11T07:13:09;0.70;;;0.70;;
67026;SDS011;53933;52.142;11.738;2022-11-11T07:15:36;0.60;;;0.60;;
67026;SDS011;53933;52.142;11.738;2022-11-11T07:18:04;0.80;;;0.70;;
67026;SDS011;53933;52.142;11.738;2022-11-11T07:20:30;1.05;;;0.93;;
67026;SDS011;53933;52.142;11.738;2022-11-11T07:22:59;0.73;;;0.73;;
67026;SDS011;53933;52.142;11.738;2022-11-11T07:25:25;1.45;;;1.10;;
67026;SDS011;53933;52.142;11.738;2022-11-11T07:27:52;1.58;;;0.80;;
67026;SDS011;53933;52.142;11.738;2022-11-11T07:30:19;1.75;;;0.93;;
67026;SDS011;53933;52.142;11.738;2022-11-11T07:32:46;2.15;;;0.93;;
67026;SDS011;53933;52.142;11.738;2022-11-11T07:35:14;3.10;;;1.27;;
67026;SDS011;53933;52.142;11.738;2022-11-11T07:37:42;1.27;;;1.10;;
67026;SDS011;53933;52.142;11.738;2022-11-11T07:40:12;1.55;;;1.02;;
67026;SDS011;53933;52.142;11.738;2022-11-11T07:42:41;0.95;;;0.80;;
67026;SDS011;53933;52.142;11.738;2022-11-11T07:45:08;1.25;;;0.90;;
67026;SDS011;53933;52.142;11.738;2022-11-11T07:47:36;0.73;;;0.73;;
67026;SDS011;53933;52.142;11.738;2022-11-11T07:50:03;1.23;;;0.93;;
67026;SDS011;53933;52.142;11.738;2022-11-11T07:52:31;1.75;;;1.20;;
67026;SDS011;53933;52.142;11.738;2022-11-11T07:54:58;0.98;;;0.85;;
67026;SDS011;53933;52.142;11.738;2022-11-11T07:57:26;0.88;;;0.88;;
67026;SDS011;53933;52.142;11.738;2022-11-11T07:59:53;1.73;;;1.10;;
67026;SDS011;53933;52.142;11.738;2022-11-11T08:02:19;0.98;;;0.93;;
67026;SDS011;53933;52.142;11.738;2022-11-11T08:04:46;1.38;;;0.65;;
67026;SDS011;53933;52.142;11.738;2022-11-11T08:07:13;0.82;;;0.80;;
67026;SDS011;53933;52.142;11.738;2022-11-11T08:09:39;0.70;;;0.70;;
67026;SDS011;53933;52.142;11.738;2022-11-11T08:12:07;1.67;;;1.15;;
67026;SDS011;53933;52.142;11.738;2022-11-11T08:14:53;1.10;;;1.00;;
67026;SDS011;53933;52.142;11.738;2022-11-11T08:17:20;1.80;;;0.85;;
67026;SDS011;53933;52.142;11.738;2022-11-11T08:19:46;0.70;;;0.70;;
67026;SDS011;53933;52.142;11.738;2022-11-11T08:22:13;1.30;;;0.93;;
67026;SDS011;53933;52.142;11.738;2022-11-11T08:24:40;1.70;;;1.00;;
67026;SDS011;53933;52.142;11.738;2022-11-11T08:27:06;0.80;;;0.80;;
67026;SDS011;53933;52.142;11.738;2022-11-11T08:29:34;1.20;;;1.10;;
67026;SDS011;53933;52.142;11.738;2022-11-11T08:32:02;1.92;;;1.02;;
67026;SDS011;53933;52.142;11.738;2022-11-11T08:34:29;1.17;;;0.90;;
67026;SDS011;53933;52.142;11.738;2022-11-11T08:36:55;0.77;;;0.70;;
67026;SDS011;53933;52.142;11.738;2022-11-11T08:39:22;0.60;;;0.60;;
67026;SDS011;53933;52.142;11.738;2022-11-11T08:41:49;0.80;;;0.70;;
67026;SDS011;53933;52.142;11.738;2022-11-11T08:44:16;2.10;;;1.10;;
67026;SDS011;53933;52.142;11.738;2022-11-11T08:46:42;2.55;;;1.25;;
67026;SDS011;53933;52.142;11.738;2022-11-11T08:49:10;1.55;;;1.02;;
67026;SDS011;53933;52.142;11.738;2022-11-11T08:51:37;2.08;;;1.20;;
67026;SDS011;53933;52.142;11.738;2022-11-11T08:54:04;1.73;;;1.08;;
67026;SDS011;53933;52.142;11.738;2022-11-11T08:56:31;1.05;;;0.93;;
67026;SDS011;53933;52.142;11.738;2022-11-11T08:58:57;1.13;;;0.95;;
67026;SDS011;53933;52.142;11.738;2022-11-11T09:01:24;1.08;;;0.98;;
67026;SDS011;53933;52.142;11.738;2022-11-11T09:03:51;2.25;;;1.00;;
67026;SDS011;53933;52.142;11.738;2022-11-11T09:06:19;1.38;;;1.20;;
67026;SDS011;53933;52.142;11.738;2022-11-11T09:08:45;2.83;;;1.13;;
67026;SDS011;53933;52.142;11.738;2022-11-11T09:11:12;0.90;;;0.90;;
67026;SDS011;53933;52.142;11.738;2022-11-11T09:13:39;0.95;;;0.90;;
67026;SDS011;53933;52.142;11.738;2022-11-11T09:16:06;1.63;;;0.85;;
67026;SDS011;53933;52.142;11.738;2022-11-11T09:18:33;0.82;;;0.82;;
67026;SDS011;53933;52.142;11.738;2022-11-11T09:21:00;1.60;;;1.00;;
67026;SDS011;53933;52.142;11.738;2022-11-11T09:23:28;1.92;;;1.10;;
67026;SDS011;53933;52.142;11.738;2022-11-11T09:25:55;1.42;;;1.17;;
67026;SDS011;53933;52.142;11.738;2022-11-11T09:28:23;1.15;;;1.00;;
67026;SDS011;53933;52.142;11.738;2022-11-11T09:30:49;1.10;;;1.00;;
67026;SDS011;53933;52.142;11.738;2022-11-11T09:33:16;1.15;;;0.95;;
67026;SDS011;53933;52.142;11.738;2022-11-11T09:35:43;1.48;;;1.08;;
67026;SDS011;53933;52.142;11.738;2022-11-11T09:38:10;1.10;;;0.82;;
67026;SDS011;53933;52.142;11.738;2022-11-11T09:40:42;1.30;;;0.88;;
67026;SDS011;53933;52.142;11.738;2022-11-11T09:43:17;2.35;;;1.00;;
67026;SDS011;53933;52.142;11.738;2022-11-11T09:45:57;1.10;;;0.82;;
67026;SDS011;53933;52.142;11.738;2022-11-11T09:48:41;1.10;;;0.90;;
67026;SDS011;53933;52.142;11.738;2022-11-11T09:51:19;0.88;;;0.88;;
67026;SDS011;53933;52.142;11.738;2022-11-11T09:53:51;1.33;;;0.88;;
67026;SDS011;53933;52.142;11.738;2022-11-11T09:56:25;2.53;;;1.00;;
67026;SDS011;53933;52.142;11.738;2022-11-11T09:58:56;2.60;;;0.77;;
67026;SDS011;53933;52.142;11.738;2022-11-11T10:01:31;1.30;;;1.00;;
67026;SDS011;53933;52.142;11.738;2022-11-11T10:04:04;1.17;;;0.90;;
67026;SDS011;53933;52.142;11.738;2022-11-11T10:06:42;2.13;;;1.00;;
67026;SDS011;53933;52.142;11.738;2022-11-11T10:09:14;1.33;;;0.82;;
67026;SDS011;53933;52.142;11.738;2022-11-11T10:11:50;1.33;;;0.90;;
67026;SDS011;53933;52.142;11.738;2022-11-11T10:14:22;0.80;;;0.80;;
67026;SDS011;53933;52.142;11.738;2022-11-11T10:16:53;2.95;;;1.25;;
67026;SDS011;53933;52.142;11.738;2022-11-11T10:19:28;0.80;;;0.80;;
67026;SDS011;53933;52.142;11.738;2022-11-11T10:21:58;1.00;;;1.00;;
67026;SDS011;53933;52.142;11.738;2022-11-11T10:24:28;0.93;;;0.80;;
67026;SDS011;53933;52.142;11.738;2022-11-11T10:26:59;1.75;;;1.00;;
67026;SDS011;53933;52.142;11.738;2022-11-11T10:29:29;4.53;;;0.90;;
67026;SDS011;53933;52.142;11.738;2022-11-11T10:32:04;2.75;;;0.90;;
67026;SDS011;53933;52.142;11.738;2022-11-11T10:34:38;1.20;;;0.93;;
67026;SDS011;53933;52.142;11.738;2022-11-11T10:37:13;1.20;;;0.90;;
67026;SDS011;53933;52.142;11.738;2022-11-11T10:39:45;0.95;;;0.95;;
67026;SDS011;53933;52.142;11.738;2022-11-11T10:42:21;1.02;;;1.00;;
67026;SDS011;53933;52.142;11.738;2022-11-11T10:44:47;2.63;;;1.08;;
67026;SDS011;53933;52.142;11.738;2022-11-11T10:47:17;2.53;;;1.02;;
67026;SDS011;53933;52.142;11.738;2022-11-11T10:49:57;1.00;;;0.88;;
67026;SDS011;53933;52.142;11.738;2022-11-11T10:52:30;1.10;;;0.90;;
67026;SDS011;53933;52.142;11.738;2022-11-11T10:55:01;1.05;;;0.95;;
67026;SDS011;53933;52.142;11.738;2022-11-11T10:57:32;1.23;;;1.00;;
67026;SDS011;53933;52.142;11.738;2022-11-11T11:00:04;0.95;;;0.90;;
67026;SDS011;53933;52.142;11.738;2022-11-11T11:02:33;0.90;;;0.82;;
67026;SDS011;53933;52.142;11.738;2022-11-11T11:05:08;1.00;;;0.75;;
67026;SDS011;53933;52.142;11.738;2022-11-11T11:07:40;1.95;;;1.13;;
67026;SDS011;53933;52.142;11.738;2022-11-11T11:10:11;1.23;;;1.13;;
67026;SDS011;53933;52.142;11.738;2022-11-11T11:12:44;1.30;;;1.08;;
67026;SDS011;53933;52.142;11.738;2022-11-11T11:15:16;1.25;;;1.10;;
67026;SDS011;53933;52.142;11.738;2022-11-11T11:17:47;2.67;;;0.90;;
67026;SDS011;53933;52.142;11.738;2022-11-11T11:20:20;1.75;;;1.30;;
67026;SDS011;53933;52.142;11.738;2022-11-11T11:22:48;1.58;;;0.93;;
67026;SDS011;53933;52.142;11.738;2022-11-11T11:25:17;2.40;;;1.00;;
67026;SDS011;53933;52.142;11.738;2022-11-11T11:27:46;2.50;;;1.13;;
67026;SDS011;53933;52.142;11.738;2022-11-11T11:30:17;4.95;;;1.20;;
67026;SDS011;53933;52.142;11.738;2022-11-11T11:32:54;4.70;;;1.25;;
67026;SDS011;53933;52.142;11.738;2022-11-11T11:35:29;3.90;;;1.15;;
67026;SDS011;53933;52.142;11.738;2022-11-11T11:40:25;7.38;;;1.30;;
67026;SDS011;53933;52.142;11.738;2022-11-11T11:42:54;3.65;;;0.98;;
67026;SDS011;53933;52.142;11.738;2022-11-11T11:45:22;5.72;;;1.27;;
67026;SDS011;53933;52.142;11.738;2022-11-11T11:47:51;1.17;;;0.90;;
67026;SDS011;53933;52.142;11.738;2022-11-11T11:50:29;5.63;;;1.30;;
67026;SDS011;53933;52.142;11.738;2022-11-11T11:53:11;2.30;;;0.90;;
67026;SDS011;53933;52.142;11.738;2022-11-11T11:55:54;3.20;;;1.10;;
67026;SDS011;53933;52.142;11.738;2022-11-11T11:58:29;5.18;;;1.35;;
67026;SDS011;53933;52.142;11.738;2022-11-11T12:01:06;5.05;;;1.70;;
67026;SDS011;53933;52.142;11.738;2022-11-11T12:06:28;3.35;;;1.05;;
67026;SDS011;53933;52.142;11.738;2022-11-11T12:09:08;1.58;;;1.30;;
67026;SDS011;53933;52.142;11.738;2022-11-11T12:11:44;4.72;;;1.52;;
67026;SDS011;53933;52.142;11.738;2022-11-11T12:14:26;2.40;;;1.55;;
67026;SDS011;53933;52.142;11.738;2022-11-11T12:17:15;3.42;;;0.90;;
67026;SDS011;53933;52.142;11.738;2022-11-11T12:19:55;1.48;;;1.00;;
67026;SDS011;53933;52.142;11.738;2022-11-11T12:22:33;3.15;;;1.55;;
67026;SDS011;53933;52.142;11.738;2022-11-11T12:25:16;6.15;;;1.48;;
67026;SDS011;53933;52.142;11.738;2022-11-11T12:27:52;3.00;;;1.52;;
67026;SDS011;53933;52.142;11.738;2022-11-11T12:30:26;2.80;;;1.40;;
67026;SDS011;53933;52.142;11.738;2022-11-11T12:33:05;2.78;;;1.25;;
67026;SDS011;53933;52.142;11.738;2022-11-11T12:36:06;3.17;;;1.45;;
67026;SDS011;53933;52.142;11.738;2022-11-11T12:38:45;4.18;;;1.73;;
67026;SDS011;53933;52.142;11.738;2022-11-11T12:41:19;2.75;;;1.42;;
67026;SDS011;53933;52.142;11.738;2022-11-11T12:44:00;5.47;;;1.40;;
67026;SDS011;53933;52.142;11.738;2022-11-11T12:46:35;2.03;;;1.30;;
67026;SDS011;53933;52.142;11.738;2022-11-11T12:49:15;14.57;;;1.98;;
67026;SDS011;53933;52.142;11.738;2022-11-11T12:51:57;3.05;;;1.73;;
67026;SDS011;53933;52.142;11.738;2022-11-11T12:54:32;4.40;;;1.50;;
67026;SDS011;53933;52.142;11.738;2022-11-11T12:57:08;3.88;;;1.77;;
67026;SDS011;53933;52.142;11.738;2022-11-11T12:59:55;2.40;;;1.50;;
67026;SDS011;53933;52.142;11.738;2022-11-11T13:02:36;2.97;;;1.48;;
67026;SDS011;53933;52.142;11.738;2022-11-11T13:05:18;2.05;;;1.40;;
67026;SDS011;53933;52.142;11.738;2022-11-11T13:07:54;2.13;;;1.65;;
67026;SDS011;53933;52.142;11.738;2022-11-11T13:10:32;2.55;;;1.80;;
67026;SDS011;53933;52.142;11.738;2022-11-11T13:13:08;3.80;;;1.67;;
67026;SDS011;53933;52.142;11.738;2022-11-11T13:15:46;2.58;;;1.35;;
67026;SDS011;53933;52.142;11.738;2022-11-11T13:18:17;2.08;;;1.60;;
67026;SDS011;53933;52.142;11.738;2022-11-11T13:20:49;3.47;;;1.88;;
67026;SDS011;53933;52.142;11.738;2022-11-11T13:23:21;3.20;;;2.08;;
67026;SDS011;53933;52.142;11.738;2022-11-11T13:25:49;6.35;;;1.58;;
67026;SDS011;53933;52.142;11.738;2022-11-11T13:28:21;2.38;;;1.42;;
67026;SDS011;53933;52.142;11.738;2022-11-11T13:30:56;1.63;;;1.45;;
67026;SDS011;53933;52.142;11.738;2022-11-11T13:33:36;3.50;;;1.30;;
67026;SDS011;53933;52.142;11.738;2022-11-11T13:36:06;3.63;;;1.63;;
67026;SDS011;53933;52.142;11.738;2022-11-11T13:38:36;3.50;;;1.80;;
67026;SDS011;53933;52.142;11.738;2022-11-11T13:41:09;3.53;;;1.48;;
67026;SDS011;53933;52.142;11.738;2022-11-11T13:43:39;2.95;;;1.63;;
67026;SDS011;53933;52.142;11.738;2022-11-11T13:46:13;2.15;;;1.40;;
67026;SDS011;53933;52.142;11.738;2022-11-11T13:49:02;5.97;;;1.63;;
67026;SDS011;53933;52.142;11.738;2022-11-11T13:51:35;3.35;;;1.75;;
67026;SDS011;53933;52.142;11.738;2022-11-11T13:54:04;6.28;;;1.52;;
67026;SDS011;53933;52.142;11.738;2022-11-11T13:56:37;2.53;;;1.50;;
67026;SDS011;53933;52.142;11.738;2022-11-11T13:59:06;3.15;;;1.75;;
67026;SDS011;53933;52.142;11.738;2022-11-11T14:01:43;4.35;;;1.60;;
67026;SDS011;53933;52.142;11.738;2022-11-11T14:04:11;2.53;;;1.65;;
67026;SDS011;53933;52.142;11.738;2022-11-11T14:06:48;3.83;;;1.58;;
67026;SDS011;53933;52.142;11.738;2022-11-11T14:12:19;2.67;;;1.58;;
67026;SDS011;53933;52.142;11.738;2022-11-11T14:15:03;2.28;;;1.45;;
67026;SDS011;53933;52.142;11.738;2022-11-11T14:17:35;2.22;;;1.60;;
67026;SDS011;53933;52.142;11.738;2022-11-11T14:23:14;2.13;;;1.67;;
67026;SDS011;53933;52.142;11.738;2022-11-11T14:28:51;2.42;;;1.40;;
67026;SDS011;53933;52.142;11.738;2022-11-11T14:31:33;5.80;;;1.65;;
67026;SDS011;53933;52.142;11.738;2022-11-11T14:34:39;2.78;;;1.40;;
67026;SDS011;53933;52.142;11.738;2022-11-11T14:37:19;3.33;;;1.75;;
67026;SDS011;53933;52.142;11.738;2022-11-11T14:39:52;1.35;;;1.05;;
67026;SDS011;53933;52.142;11.738;2022-11-11T14:42:40;3.97;;;1.50;;
67026;SDS011;53933;52.142;11.738;2022-11-11T14:54:19;2.47;;;1.30;;
67026;SDS011;53933;52.142;11.738;2022-11-11T14:56:58;3.13;;;1.20;;
67026;SDS011;53933;52.142;11.738;2022-11-11T14:59:29;4.80;;;1.38;;
67026;SDS011;53933;52.142;11.738;2022-11-11T15:01:57;2.38;;;1.20;;
67026;SDS011;53933;52.142;11.738;2022-11-11T15:04:25;2.92;;;1.35;;
67026;SDS011;53933;52.142;11.738;2022-11-11T15:06:54;1.95;;;1.20;;
67026;SDS011;53933;52.142;11.738;2022-11-11T15:09:30;2.40;;;1.33;;
67026;SDS011;53933;52.142;11.738;2022-11-11T15:12:30;1.80;;;1.27;;
67026;SDS011;53933;52.142;11.738;2022-11-11T15:15:08;2.55;;;1.33;;
67026;SDS011;53933;52.142;11.738;2022-11-11T15:17:40;4.60;;;1.70;;
67026;SDS011;53933;52.142;11.738;2022-11-11T15:20:30;3.15;;;1.50;;
67026;SDS011;53933;52.142;11.738;2022-11-11T15:23:14;4.45;;;1.50;;
67026;SDS011;53933;52.142;11.738;2022-11-11T15:25:51;5.20;;;1.65;;